createdAt,value
2022-12-03T00:11:59.578Z,15.29
2022-12-03T00:40:48.040Z,15.22
2022-12-03T01:09:30.026Z,15.14
2022-12-03T01:38:18.297Z,15.08
2022-12-03T02:06:58.483Z,15.02
2022-12-03T02:35:28.287Z,14.95
2022-12-03T03:04:15.421Z,14.88
2022-12-03T03:33:02.506Z,14.82
2022-12-03T04:01:44.251Z,14.74
2022-12-03T04:30:21.748Z,14.69
2022-12-03T04:59:16.948Z,14.64
2022-12-03T05:27:38.098Z,14.58
2022-12-03T05:56:22.621Z,14.52
2022-12-03T06:25:12.206Z,14.47
2022-12-03T06:53:57.216Z,14.42
2022-12-03T07:22:39.505Z,14.37
2022-12-03T07:51:32.727Z,14.31
2022-12-03T08:19:51.042Z,14.27
2022-12-03T08:48:27.338Z,14.24
2022-12-03T09:17:03.739Z,14.19
2022-12-03T09:45:32.889Z,14.16
2022-12-03T10:13:59.579Z,14.14
2022-12-03T10:42:35.892Z,14.09
2022-12-03T11:11:10.071Z,14.05
2022-12-03T11:39:47.070Z,14.03
2022-12-03T12:08:25.324Z,14.02
2022-12-03T12:37:01.788Z,14.25
2022-12-03T13:05:41.133Z,14.28
2022-12-03T13:34:21.283Z,14.29
2022-12-03T14:02:52.896Z,14.31
2022-12-03T14:31:24.688Z,14.33
2022-12-03T15:00:06.479Z,14.32
2022-12-03T15:28:48.876Z,14.31
2022-12-03T15:57:04.971Z,14.3
2022-12-03T16:25:46.004Z,14.29
2022-12-03T16:54:30.326Z,14.29
2022-12-03T17:23:04.174Z,14.28
2022-12-03T17:51:33.745Z,14.33
2022-12-03T18:20:05.028Z,14.28
2022-12-03T18:48:46.614Z,14.26
2022-12-03T19:17:26.729Z,14.23
2022-12-03T19:46:05.974Z,14.21
2022-12-03T20:14:41.591Z,14.18
2022-12-03T20:43:23.388Z,14.2
2022-12-03T21:12:07.018Z,14.19
2022-12-03T21:40:42.002Z,14.15
2022-12-03T22:09:27.364Z,14.14
2022-12-03T22:37:50.376Z,14.12
2022-12-03T23:06:34.520Z,14.12
2022-12-03T23:35:22.886Z,14.13
